Pagina principale
METAR-TAF:

METAR-TAF

Aeroporti :

Frontone, Italia

latitudine: 43-31N, longitudine: 012-44E, altezza: 570 m

Osservazione

Il bollettino è stato emesso 44 minuti fa, alle 12:55 UTC
Vento 9 kt da nord/nord-ovest
Temperature 13°C
Umidità 77%
Pressione 1009 hPa
Visibilità 10 km o più
Nuvoloso ad un'altezza di 1900 ft
Poco nuvoloso ad un'altezza di 2200 ft, Cumulo congesto.

METAR: LIVF 191255Z 33009KT 9999 BKN019 FEW022TCU 13/09 Q1009 RMK OVC MON S W CIME INC NC VAL NIL VIS MIN 9999

Ora: 15:39 (13:39 UTC)


TAF: mancante

Osservazioni e previsioni meteorologiche di più di 4000 aeroporti (messaggi METAR e TAF).

Le stazioni disponibili sono rappresentate dai dischi gialli e rossi sulla carta.

Puntare il mouse per vedere il nome della stazione.

Clicca sopra per visualizzare le osservazioni e previsioni meteorologiche.

Per cambiare la mappa : fare clic sui pulsanti verdi con una croce nera per ingrandire, il pulsante verde con un trattino per diminuire, o sulla freccia verde per le mappe adiacenti.


METAR-TAF: